Blacksburg, VA

1:36 PM EDT on October 30, 2014 (GMT -0400)
APRSWXNET Blacksburg VA US | Change Station
CLOSE
Current Station
Personal Weather Station
Location: Blacksburg, VA
Elevation: 2200 ft
Nearby Weather Stations

Elev 2200 ft 37.24 °N, 80.36 °W | Updated 42 days ago

Clear
Clear
57 °F
Feels Like 57 °F
N
6
Wind Variable Wind from NW
Gusts 10 mph

Today
High -- | Low -- °F
--% Chance of Precip.
Yesterday
High -- | Low -- °F
Precip. -- in
7:43 AM 6:25 PM
Waxing Crescent, 46% visible
Pressure 30.07 in
Visibility 10.0 miles
Clouds Clear
Dew Point 36 °F
Humidity 44%
Rainfall 0.00 in
Snow Depth Not available.
UV 5 out of 12
Pollen .60 out of 12
Air Quality Not available.
Flu Activity Not available.
METAR KBCB 301715Z AUTO 28006KT 10SM CLR 12/04 A3007 RMK AO2

More Conditions Fewer Conditions

Pressure 30.07 in
Visibility 10.0 miles
Clouds Clear
Dew Point 36 °F
Humidity 44%
Rainfall 0.00 in
Snow Depth Not available.
UV 5 out of 12
Pollen .60 out of 12
Air Quality Not available.
Flu Activity Not available.
METAR KBCB 301715Z AUTO 28006KT 10SM CLR 12/04 A3007 RMK AO2

More Conditions Fewer Conditions

10-Day Weather Forecast

Almanac

Astronomy

Oct. 30, 2014 Rise Set
Actual Time
Civil Twilight
Nautical Twilight
Astronomical Twilight
Moon
Length of Visible Light
Length of Day
Tomorrow will be .
, % of the Moon is Illuminated

Today's Extremes

State Highs State Lows

Community

WunderPhotos

Upload Photos

1,766,409 photos uploaded!

WunderBlogs® & News

Nearby

Air Quality

  Air Quality AQ Index Pollutant
Not available.

Snow Depth

Station Depth Elevation

Earthquake Activity

City Distance Mag. Time & Date
Minimum magnitude displayed is 2.5.

Coastal Water Temperatures

Place Temperature

Nearby Weather Stations